Time;durP1;ratioP1;P1;durP2;ratioP2;P2;SDS_P1;SDS_P2;PMS_P1;PMS_P2;Temp;Humidity;BMP_temperature;BMP_pressure;BME280_temperature;BME280_humidity;BME280_pressure;Samples;Min_cycle;Max_cycle;Signal;HPM_P1;HPM_P2
2022/03/27 00:01:40;;;;;;;11.63;6.72;;;;;;;9.00;100.00;102830.56;4982116;28;20034;-75
2022/03/27 00:04:05;;;;;;;13.90;6.63;;;;;;;8.92;100.00;102837.25;5001427;28;20034;-76
2022/03/27 00:06:31;;;;;;;15.27;6.75;;;;;;;8.79;100.00;102835.03;5002442;28;20045;-76
2022/03/27 00:08:56;;;;;;;13.82;6.97;;;;;;;8.84;100.00;102834.88;4990161;28;20053;-76
2022/03/27 00:11:24;;;;;;;12.68;6.82;;;;;;;8.72;100.00;102832.59;5008445;28;20503;-76
2022/03/27 00:13:58;;;;;;;12.00;6.47;;;;;;;8.69;100.00;102833.63;4962514;28;20034;-76
2022/03/27 00:16:24;;;;;;;13.18;6.60;;;;;;;8.66;100.00;102831.03;5009854;28;20037;-76
2022/03/27 00:18:50;;;;;;;13.45;7.22;;;;;;;8.51;100.00;102829.78;4986273;28;20401;-76
2022/03/27 00:21:16;;;;;;;14.13;7.10;;;;;;;8.43;100.00;102831.91;4997232;28;20041;-75
2022/03/27 00:23:43;;;;;;;11.50;6.25;;;;;;;8.48;100.00;102827.16;4993692;28;20045;-76
2022/03/27 00:26:09;;;;;;;16.60;7.72;;;;;;;8.48;100.00;102835.34;4996824;28;20165;-76
2022/03/27 00:28:35;;;;;;;16.88;6.32;;;;;;;8.56;100.00;102835.94;4977167;28;20481;-75
2022/03/27 00:31:02;;;;;;;13.30;7.18;;;;;;;8.53;100.00;102833.34;5003072;28;20034;-75
2022/03/27 00:33:28;;;;;;;12.05;7.05;;;;;;;8.49;100.00;102841.69;4989468;28;20037;-75
2022/03/27 00:35:54;;;;;;;18.73;7.80;;;;;;;8.53;100.00;102835.19;4988418;28;20034;-75
2022/03/27 00:38:20;;;;;;;16.33;7.82;;;;;;;8.44;100.00;102826.41;4989723;28;20424;-75
2022/03/27 00:40:45;;;;;;;14.23;7.10;;;;;;;8.42;100.00;102828.22;4982866;28;20031;-75
2022/03/27 00:43:11;;;;;;;13.45;7.55;;;;;;;8.45;100.00;102827.28;4992368;28;20034;-75
2022/03/27 00:45:37;;;;;;;17.85;7.18;;;;;;;8.42;100.00;102825.50;5010369;28;20045;-76
2022/03/27 00:48:03;;;;;;;15.48;7.30;;;;;;;8.45;100.00;102830.88;5010652;28;20029;-75
2022/03/27 00:50:30;;;;;;;14.23;6.47;;;;;;;8.40;100.00;102824.69;5001863;28;20037;-75
2022/03/27 00:52:57;;;;;;;12.68;7.53;;;;;;;8.36;100.00;102828.50;4988100;28;20385;-75
2022/03/27 00:55:22;;;;;;;13.63;7.43;;;;;;;8.40;100.00;102832.88;4991558;28;20117;-75
2022/03/27 00:57:48;;;;;;;14.50;7.35;;;;;;;8.39;100.00;102833.81;4994855;28;20594;-75
2022/03/27 01:00:38;;;;;;;14.90;6.80;;;;;;;8.41;100.00;102823.75;4994230;28;20088;-75
2022/03/27 01:03:15;;;;;;;14.82;7.57;;;;;;;8.35;100.00;102812.19;5001903;28;20038;-75
2022/03/27 01:05:43;;;;;;;15.68;8.20;;;;;;;8.38;100.00;102814.75;5008435;28;20037;-75
2022/03/27 01:08:10;;;;;;;16.15;7.43;;;;;;;8.39;100.00;102827.47;5001100;28;20034;-75
2022/03/27 01:10:37;;;;;;;14.27;6.68;;;;;;;8.35;100.00;102818.50;4969791;28;20041;-75
2022/03/27 01:13:18;;;;;;;15.57;7.65;;;;;;;8.41;100.00;102811.91;5003416;28;20050;-75
2022/03/27 01:15:53;;;;;;;17.25;7.72;;;;;;;8.28;100.00;102814.25;4989602;28;20074;-75
2022/03/27 01:18:20;;;;;;;15.25;7.60;;;;;;;8.32;100.00;102810.44;4992091;28;20359;-75
2022/03/27 01:20:46;;;;;;;16.85;7.90;;;;;;;8.23;100.00;102816.22;5001548;28;20582;-76
2022/03/27 01:23:13;;;;;;;14.00;7.38;;;;;;;8.30;100.00;102817.81;4986635;28;20137;-76
2022/03/27 01:25:41;;;;;;;19.48;9.07;;;;;;;8.20;100.00;102814.53;4987721;28;20148;-76
2022/03/27 01:28:08;;;;;;;13.50;7.55;;;;;;;8.22;100.00;102809.91;4989342;28;20022;-76
2022/03/27 01:30:35;;;;;;;23.20;9.00;;;;;;;8.23;100.00;102816.22;4993753;28;20121;-75
2022/03/27 01:33:01;;;;;;;22.95;8.02;;;;;;;8.15;100.00;102802.00;5000781;28;20022;-75
2022/03/27 01:35:27;;;;;;;18.08;8.32;;;;;;;8.24;100.00;102812.56;5003495;28;20044;-76
2022/03/27 01:37:52;;;;;;;15.90;8.25;;;;;;;8.18;100.00;102820.97;5000564;28;20038;-76
2022/03/27 01:40:18;;;;;;;17.38;8.07;;;;;;;8.23;100.00;102821.69;4987091;28;20030;-76
2022/03/27 01:42:44;;;;;;;14.93;8.32;;;;;;;8.10;100.00;102824.00;5002965;28;20069;-76
2022/03/27 01:45:11;;;;;;;19.05;8.55;;;;;;;8.03;100.00;102820.59;4989053;28;20022;-76
2022/03/27 01:47:37;;;;;;;22.67;9.27;;;;;;;7.91;100.00;102827.38;5011089;28;20056;-76
2022/03/27 01:50:05;;;;;;;15.82;8.65;;;;;;;7.96;100.00;102808.13;4980252;28;20084;-76
2022/03/27 01:52:31;;;;;;;16.92;8.38;;;;;;;7.99;100.00;102820.78;5008346;28;20030;-76
2022/03/27 01:54:56;;;;;;;18.83;9.43;;;;;;;7.86;100.00;102818.50;5001753;28;20447;-76
2022/03/27 01:57:22;;;;;;;26.73;9.23;;;;;;;7.78;100.00;102806.97;5013170;28;20409;-76
2022/03/27 01:59:47;;;;;;;20.38;9.60;;;;;;;7.74;100.00;102802.59;4999082;28;20405;-75
2022/03/27 02:02:13;;;;;;;21.08;10.30;;;;;;;7.70;100.00;102796.31;5003527;28;20030;-75
2022/03/27 02:04:38;;;;;;;17.35;9.50;;;;;;;7.73;100.00;102809.84;5006779;28;20039;-75
2022/03/27 02:07:04;;;;;;;19.25;10.15;;;;;;;7.64;100.00;102804.75;4995268;28;20117;-75
2022/03/27 02:09:30;;;;;;;24.02;11.13;;;;;;;7.70;100.00;102806.34;5005551;28;20548;-75
2022/03/27 02:11:55;;;;;;;24.48;10.70;;;;;;;7.68;100.00;102809.13;5002786;28;20137;-75
2022/03/27 02:14:21;;;;;;;21.77;11.70;;;;;;;7.61;100.00;102807.56;4997450;28;20034;-76
2022/03/27 02:16:46;;;;;;;25.60;11.25;;;;;;;7.70;100.00;102807.22;5011375;28;20038;-76
2022/03/27 02:19:12;;;;;;;27.48;11.98;;;;;;;7.62;100.00;102805.72;5001610;28;20548;-75
2022/03/27 02:21:39;;;;;;;23.52;12.25;;;;;;;7.56;100.00;102815.03;5001957;28;20042;-76
2022/03/27 02:24:05;;;;;;;24.73;12.35;;;;;;;7.58;100.00;102815.84;4968147;28;20034;-75
2022/03/27 02:26:32;;;;;;;29.30;13.05;;;;;;;7.61;100.00;102812.13;4994802;28;20050;-75
2022/03/27 02:28:58;;;;;;;26.85;12.73;;;;;;;7.62;100.00;102819.34;5006900;28;20031;-75
2022/03/27 02:31:23;;;;;;;26.83;12.15;;;;;;;7.69;100.00;102805.47;5000072;28;20060;-75
2022/03/27 02:33:48;;;;;;;27.77;12.70;;;;;;;7.75;100.00;102814.38;5008428;28;20084;-75
2022/03/27 02:36:15;;;;;;;24.58;12.30;;;;;;;7.77;100.00;102813.34;4996217;28;20045;-75
2022/03/27 02:38:41;;;;;;;26.58;13.90;;;;;;;7.71;100.00;102803.56;4999659;28;20041;-75
2022/03/27 02:41:07;;;;;;;33.83;15.15;;;;;;;7.78;100.00;102815.16;4986736;28;20045;-75
2022/03/27 02:43:33;;;;;;;37.67;15.65;;;;;;;7.87;100.00;102819.38;4985759;28;20034;-75
2022/03/27 02:45:59;;;;;;;36.05;15.88;;;;;;;7.82;100.00;102814.09;4990488;28;20049;-75
2022/03/27 02:48:24;;;;;;;30.05;14.77;;;;;;;7.80;100.00;102802.34;5005130;28;20037;-75
2022/03/27 02:50:50;;;;;;;31.45;14.88;;;;;;;7.85;100.00;102813.97;4978427;28;20043;-75
2022/03/27 02:53:15;;;;;;;27.67;15.48;;;;;;;7.84;100.00;102805.88;4990284;28;20084;-76
2022/03/27 02:55:41;;;;;;;35.70;16.52;;;;;;;7.76;100.00;102811.59;5003640;28;20034;-76
2022/03/27 02:58:07;;;;;;;35.45;16.73;;;;;;;7.76;100.00;102805.25;5005949;28;20034;-76
2022/03/27 03:00:32;;;;;;;31.77;16.63;;;;;;;7.86;100.00;102812.16;5000783;28;20093;-75
2022/03/27 03:02:58;;;;;;;34.25;17.80;;;;;;;7.89;100.00;102807.47;5003113;28;20043;-76
2022/03/27 03:05:23;;;;;;;35.97;19.02;;;;;;;7.84;100.00;102806.75;5004694;28;20066;-75
2022/03/27 03:07:50;;;;;;;38.58;19.35;;;;;;;7.93;100.00;102804.63;4983835;28;20030;-74
2022/03/27 03:10:16;;;;;;;40.78;19.58;;;;;;;7.93;100.00;102804.63;4988064;28;20049;-77
2022/03/27 03:12:42;;;;;;;41.22;22.33;;;;;;;7.89;100.00;102810.19;5006986;28;20035;-76
2022/03/27 03:15:09;;;;;;;40.20;20.90;;;;;;;7.86;100.00;102804.84;4986863;28;20033;-76
2022/03/27 03:17:35;;;;;;;43.92;21.88;;;;;;;7.82;100.00;102808.66;5004397;28;20498;-75
2022/03/27 03:20:01;;;;;;;43.10;20.90;;;;;;;7.78;100.00;102804.25;4982573;28;20104;-75
2022/03/27 03:22:27;;;;;;;51.30;24.48;;;;;;;7.82;100.00;102797.75;5011249;28;20486;-75
2022/03/27 03:24:52;;;;;;;46.88;22.40;;;;;;;7.87;100.00;102803.00;5003109;28;20097;-75
2022/03/27 03:27:18;;;;;;;49.53;22.52;;;;;;;7.90;100.00;102809.25;5002459;28;20026;-75
2022/03/27 03:29:44;;;;;;;61.08;24.10;;;;;;;7.83;100.00;102802.22;4988324;28;20104;-75
2022/03/27 03:32:09;;;;;;;57.38;25.20;;;;;;;7.78;100.00;102800.63;4991414;28;20041;-75
2022/03/27 03:34:35;;;;;;;54.70;25.30;;;;;;;7.88;100.00;102802.06;4985743;28;20058;-75
2022/03/27 03:37:01;;;;;;;51.47;23.55;;;;;;;7.88;100.00;102797.50;4986442;28;20064;-75
2022/03/27 03:39:26;;;;;;;55.70;23.65;;;;;;;7.94;100.00;102788.22;5002434;28;20033;-75
2022/03/27 03:41:52;;;;;;;51.97;24.63;;;;;;;7.93;100.00;102796.47;4988728;28;20049;-77
2022/03/27 03:44:17;;;;;;;55.15;25.38;;;;;;;7.94;100.00;102792.78;4998332;28;20046;-76
2022/03/27 03:46:43;;;;;;;56.38;25.13;;;;;;;7.93;100.00;102802.78;5003372;28;20030;-76
2022/03/27 03:49:09;;;;;;;56.33;26.30;;;;;;;7.89;100.00;102792.97;4982257;28;20042;-76
2022/03/27 03:51:35;;;;;;;57.92;25.33;;;;;;;7.87;100.00;102793.00;4986934;28;20034;-76
2022/03/27 03:54:02;;;;;;;58.80;26.88;;;;;;;7.91;100.00;102789.22;4998128;28;20041;-76
2022/03/27 03:56:27;;;;;;;57.65;26.95;;;;;;;7.88;100.00;102786.59;4998599;28;20113;-76
2022/03/27 03:58:52;;;;;;;65.68;27.73;;;;;;;7.91;100.00;102791.06;4986638;28;20569;-76
2022/03/27 04:01:18;;;;;;;56.72;26.48;;;;;;;7.91;100.00;102781.03;4989413;28;20030;-76
2022/03/27 04:03:43;;;;;;;67.95;29.52;;;;;;;7.90;100.00;102801.09;4987072;28;20413;-76
2022/03/27 04:06:09;;;;;;;59.70;27.98;;;;;;;7.97;100.00;102800.84;4995538;28;20152;-76
2022/03/27 04:08:36;;;;;;;69.30;27.83;;;;;;;8.00;100.00;102796.19;4999487;28;20488;-76
2022/03/27 04:11:02;;;;;;;83.45;28.52;;;;;;;7.87;100.00;102803.91;4986075;28;20485;-76
2022/03/27 04:13:27;;;;;;;66.35;27.05;;;;;;;8.04;100.00;102789.66;4993532;28;20397;-76
2022/03/27 04:15:53;;;;;;;69.10;29.70;;;;;;;7.73;100.00;102784.44;5004046;28;20099;-76
2022/03/27 04:18:18;;;;;;;63.17;27.45;;;;;;;7.86;100.00;102793.94;5010281;28;20088;-76
2022/03/27 04:20:44;;;;;;;71.05;29.20;;;;;;;7.80;100.00;102780.53;4987502;28;20054;-76
2022/03/27 04:23:09;;;;;;;83.57;29.55;;;;;;;7.80;100.00;102782.38;4976381;28;20030;-76
2022/03/27 04:25:35;;;;;;;81.20;28.95;;;;;;;7.89;100.00;102793.84;4979483;28;20379;-76
2022/03/27 04:28:08;;;;;;;82.75;31.05;;;;;;;7.77;100.00;102786.09;4985578;28;20034;-76
2022/03/27 04:30:35;;;;;;;71.88;29.63;;;;;;;7.78;100.00;102795.19;4988490;28;20046;-76
2022/03/27 04:33:00;;;;;;;84.68;31.25;;;;;;;7.78;100.00;102797.91;4990759;28;20031;-76
2022/03/27 04:35:26;;;;;;;105.90;31.65;;;;;;;7.78;100.00;102785.16;4984883;28;20097;-76
2022/03/27 04:37:51;;;;;;;91.43;31.58;;;;;;;7.76;100.00;102778.88;4985560;28;20449;-76
2022/03/27 04:40:17;;;;;;;80.78;32.00;;;;;;;7.80;100.00;102794.16;4989345;28;20060;-76
2022/03/27 04:42:44;;;;;;;89.72;29.90;;;;;;;7.89;100.00;102796.56;4963343;28;20043;-76
2022/03/27 04:45:11;;;;;;;75.15;31.88;;;;;;;7.82;100.00;102808.66;4990074;28;20478;-76
2022/03/27 04:47:37;;;;;;;78.82;30.05;;;;;;;7.79;100.00;102803.31;4984945;28;20030;-76
2022/03/27 04:50:04;;;;;;;74.38;28.13;;;;;;;7.87;100.00;102808.47;4988526;28;20066;-76
2022/03/27 04:52:30;;;;;;;67.40;28.67;;;;;;;7.75;100.00;102811.66;4982659;28;20041;-76
2022/03/27 04:54:55;;;;;;;82.82;26.20;;;;;;;7.71;100.00;102808.13;4982775;28;20030;-76
2022/03/27 04:57:21;;;;;;;67.32;27.45;;;;;;;7.64;100.00;102812.94;4986662;28;20509;-76
2022/03/27 04:59:47;;;;;;;80.25;26.63;;;;;;;7.65;100.00;102814.69;4979115;28;20073;-76
2022/03/27 05:02:13;;;;;;;83.85;25.50;;;;;;;7.50;100.00;102818.84;4986880;28;20053;-76
2022/03/27 05:04:40;;;;;;;64.43;23.70;;;;;;;7.54;100.00;102820.53;4986967;28;20031;-76
2022/03/27 05:07:06;;;;;;;78.78;25.85;;;;;;;7.47;100.00;102812.59;4993598;28;20027;-77
2022/03/27 05:09:31;;;;;;;72.57;25.92;;;;;;;7.56;100.00;102828.66;4986686;28;20113;-76
2022/03/27 05:11:56;;;;;;;73.05;26.63;;;;;;;7.55;100.00;102827.75;4986453;28;20096;-77
2022/03/27 05:14:22;;;;;;;75.63;26.95;;;;;;;7.51;100.00;102822.44;4996704;28;20030;-76
2022/03/27 05:16:47;;;;;;;68.85;24.83;;;;;;;7.49;100.00;102817.06;4988804;28;20030;-77
2022/03/27 05:19:13;;;;;;;69.95;22.83;;;;;;;7.47;100.00;102827.13;4988438;28;20038;-77
2022/03/27 05:21:38;;;;;;;77.97;21.80;;;;;;;7.50;100.00;102820.69;4993459;28;20058;-76
2022/03/27 05:24:05;;;;;;;60.13;21.50;;;;;;;7.36;100.00;102815.69;4987083;28;20049;-76
2022/03/27 05:26:30;;;;;;;79.97;23.02;;;;;;;7.40;100.00;102817.38;4983113;28;20034;-76
2022/03/27 05:28:56;;;;;;;79.05;23.60;;;;;;;7.40;100.00;102830.13;5005867;28;20027;-77
2022/03/27 05:31:21;;;;;;;61.97;22.45;;;;;;;7.45;100.00;102837.19;4998322;28;20117;-77
2022/03/27 05:33:47;;;;;;;71.00;23.83;;;;;;;7.45;100.00;102834.47;4995493;28;20038;-75
2022/03/27 05:36:13;;;;;;;74.13;23.40;;;;;;;7.43;100.00;102833.63;5001693;28;20481;-75
2022/03/27 05:38:40;;;;;;;67.38;23.35;;;;;;;7.36;100.00;102826.59;4983800;28;20078;-75
2022/03/27 05:41:07;;;;;;;69.25;23.35;;;;;;;7.47;100.00;102832.56;5000670;28;20041;-75
2022/03/27 05:43:33;;;;;;;66.20;24.77;;;;;;;7.46;100.00;102836.25;4996802;28;20073;-75
2022/03/27 05:45:58;;;;;;;84.40;24.70;;;;;;;7.40;100.00;102825.56;5008819;28;20034;-75
2022/03/27 05:48:23;;;;;;;73.57;26.45;;;;;;;7.48;100.00;102831.63;4999044;28;20056;-75
2022/03/27 05:50:49;;;;;;;86.90;26.50;;;;;;;7.48;100.00;102836.22;4988302;28;20173;-75
2022/03/27 05:53:15;;;;;;;64.90;24.63;;;;;;;7.54;100.00;102836.88;5011357;28;20065;-75
2022/03/27 05:55:41;;;;;;;71.28;25.40;;;;;;;7.53;100.00;102846.00;5003508;28;20034;-75
2022/03/27 05:58:07;;;;;;;70.65;22.95;;;;;;;7.52;100.00;102846.03;5004344;28;20061;-75
2022/03/27 06:00:33;;;;;;;100.95;24.20;;;;;;;7.38;100.00;102838.34;5006833;28;20030;-75
2022/03/27 06:02:59;;;;;;;85.93;22.83;;;;;;;7.52;100.00;102843.31;4999246;28;20385;-75
2022/03/27 06:05:25;;;;;;;79.63;23.60;;;;;;;7.40;100.00;102850.09;4987215;28;20125;-74
2022/03/27 06:07:56;;;;;;;62.90;22.42;;;;;;;7.42;100.00;102853.63;4990228;28;20025;-75
2022/03/27 06:10:24;;;;;;;55.55;23.55;;;;;;;7.43;100.00;102863.63;5004311;28;20066;-74
2022/03/27 06:12:51;;;;;;;60.30;22.30;;;;;;;7.33;100.00;102871.19;4972212;28;20049;-75
2022/03/27 06:15:17;;;;;;;63.20;24.27;;;;;;;7.41;100.00;102868.22;4980016;28;20067;-75
2022/03/27 06:17:45;;;;;;;70.97;22.92;;;;;;;7.41;100.00;102870.03;4998921;28;20030;-75
2022/03/27 06:20:14;;;;;;;92.35;22.73;;;;;;;7.44;100.00;102869.94;4967545;28;20061;-75
2022/03/27 06:22:40;;;;;;;58.90;21.67;;;;;;;7.45;100.00;102869.88;4987453;28;20034;-75
2022/03/27 06:25:07;;;;;;;62.95;22.17;;;;;;;7.44;100.00;102868.09;4986310;28;20073;-75
2022/03/27 06:27:33;;;;;;;66.68;21.38;;;;;;;7.44;100.00;102868.09;4982883;28;20092;-74
2022/03/27 06:29:59;;;;;;;74.90;23.77;;;;;;;7.40;100.00;102866.44;4994622;28;20034;-75
2022/03/27 06:32:27;;;;;;;70.30;21.90;;;;;;;7.44;100.00;102867.22;4978270;28;20053;-74
2022/03/27 06:34:57;;;;;;;115.80;24.02;;;;;;;7.32;100.00;102869.41;4990986;28;20199;-74
2022/03/27 06:37:26;;;;;;;61.97;21.98;;;;;;;7.42;100.00;102864.53;4984336;28;20096;-74
2022/03/27 06:39:54;;;;;;;74.78;20.58;;;;;;;7.43;100.00;102866.34;4965093;28;20422;-74
2022/03/27 06:42:21;;;;;;;94.70;22.25;;;;;;;7.47;100.00;102870.72;4976498;28;20033;-74
2022/03/27 06:44:46;;;;;;;71.47;24.05;;;;;;;7.47;100.00;102867.13;4983930;28;20046;-74
2022/03/27 06:47:13;;;;;;;79.40;24.55;;;;;;;7.46;100.00;102868.06;4985351;28;20030;-74
2022/03/27 06:49:39;;;;;;;81.32;24.48;;;;;;;7.37;100.00;102866.53;4987882;28;20146;-75
2022/03/27 06:52:06;;;;;;;62.30;21.70;;;;;;;7.36;100.00;102859.28;4977430;28;20057;-74
2022/03/27 06:54:33;;;;;;;85.50;23.83;;;;;;;7.41;100.00;102865.50;4982365;28;20034;-75
2022/03/27 06:56:58;;;;;;;70.63;22.10;;;;;;;7.42;100.00;102867.28;4986161;28;20042;-75
2022/03/27 06:59:24;;;;;;;78.18;24.00;;;;;;;7.41;100.00;102861.88;4984438;28;20055;-75
2022/03/27 07:04:41;;;;;;;71.28;23.65;;;;;;;7.54;100.00;102863.22;4983835;28;20493;-75
2022/03/27 07:07:06;;;;;;;91.70;26.00;;;;;;;7.59;100.00;102864.00;4989918;28;20026;-75
2022/03/27 07:09:32;;;;;;;80.80;23.38;;;;;;;7.57;100.00;102859.53;4986880;28;20486;-75
2022/03/27 07:11:57;;;;;;;71.68;23.95;;;;;;;7.62;100.00;102860.25;4990516;28;20031;-75
2022/03/27 07:14:24;;;;;;;60.83;24.73;;;;;;;7.56;100.00;102872.28;4965179;28;20086;-75
2022/03/27 07:16:49;;;;;;;80.28;23.48;;;;;;;7.46;100.00;102873.50;4977541;28;20387;-75
2022/03/27 07:19:15;;;;;;;71.25;22.70;;;;;;;7.55;100.00;102874.09;4999713;28;20050;-75
2022/03/27 07:21:42;;;;;;;80.35;22.85;;;;;;;7.45;100.00;102875.34;4992395;28;20053;-75
2022/03/27 07:24:07;;;;;;;79.03;22.23;;;;;;;7.49;100.00;102876.13;4981046;28;20537;-75
2022/03/27 07:26:33;;;;;;;71.82;20.85;;;;;;;7.47;100.00;102878.91;4986642;28;20038;-75
2022/03/27 07:28:58;;;;;;;77.53;22.65;;;;;;;7.40;100.00;102876.47;4973656;28;20043;-75
2022/03/27 07:31:23;;;;;;;74.45;21.05;;;;;;;7.46;100.00;102878.94;4985153;28;20364;-75
2022/03/27 07:33:50;;;;;;;90.20;23.35;;;;;;;7.39;100.00;102881.00;4975968;28;20126;-75
2022/03/27 07:36:15;;;;;;;77.80;23.45;;;;;;;7.45;100.00;102875.34;4982573;28;20047;-75
2022/03/27 07:38:41;;;;;;;86.47;23.27;;;;;;;7.60;100.00;102882.13;4982189;28;20425;-75
2022/03/27 07:41:06;;;;;;;103.57;24.95;;;;;;;7.42;100.00;102883.63;4982192;28;20081;-75
2022/03/27 07:43:32;;;;;;;67.40;23.67;;;;;;;7.50;100.00;102877.91;4983490;28;20054;-76
2022/03/27 07:45:58;;;;;;;80.32;22.73;;;;;;;7.53;100.00;102886.00;4994153;28;20033;-75
2022/03/27 07:48:23;;;;;;;68.95;23.02;;;;;;;7.49;100.00;102879.75;4985999;28;20092;-75
2022/03/27 07:50:54;;;;;;;74.95;22.48;;;;;;;7.55;100.00;102874.09;4980255;28;20551;-75
2022/03/27 07:53:19;;;;;;;74.47;22.95;;;;;;;7.52;100.00;102882.38;4983801;28;20031;-76
2022/03/27 07:55:45;;;;;;;72.15;23.98;;;;;;;7.70;100.00;102878.13;4991090;28;20124;-77
2022/03/27 07:58:10;;;;;;;75.95;24.05;;;;;;;7.61;100.00;102880.25;4987475;28;20113;-75
2022/03/27 08:00:35;;;;;;;68.32;22.27;;;;;;;7.77;100.00;102880.63;4984247;28;20108;-75
2022/03/27 08:03:03;;;;;;;73.40;23.15;;;;;;;7.71;100.00;102873.59;4977673;28;20042;-76
2022/03/27 08:05:28;;;;;;;66.40;24.15;;;;;;;7.74;100.00;102873.47;4965802;28;20034;-75
2022/03/27 08:07:54;;;;;;;99.10;25.52;;;;;;;7.78;100.00;102880.59;4986025;28;20175;-75
2022/03/27 08:10:20;;;;;;;56.75;22.73;;;;;;;7.79;100.00;102874.22;4986107;28;20069;-75
2022/03/27 08:12:46;;;;;;;62.88;23.00;;;;;;;7.79;100.00;102876.94;4988853;28;20030;-75
2022/03/27 08:15:12;;;;;;;65.32;23.33;;;;;;;7.89;100.00;102875.66;4983250;28;20030;-75
2022/03/27 08:17:38;;;;;;;63.78;24.27;;;;;;;7.83;100.00;102878.59;4981804;28;20108;-76
2022/03/27 08:20:05;;;;;;;61.60;22.40;;;;;;;7.80;100.00;102870.50;4983257;28;20096;-75
2022/03/27 08:22:31;;;;;;;57.63;22.38;;;;;;;7.67;100.00;102871.88;4985766;28;20085;-76
2022/03/27 08:24:57;;;;;;;60.95;24.55;;;;;;;7.74;100.00;102876.22;4970787;28;20134;-76
2022/03/27 08:27:22;;;;;;;63.30;23.02;;;;;;;7.85;100.00;102881.25;4984789;28;20363;-74
2022/03/27 08:29:48;;;;;;;72.43;23.27;;;;;;;7.80;100.00;102875.09;4992068;28;20498;-76
2022/03/27 08:32:15;;;;;;;68.43;23.95;;;;;;;7.96;100.00;102878.16;4977999;28;20043;-75
2022/03/27 08:34:44;;;;;;;69.93;24.17;;;;;;;7.96;100.00;102875.44;4978327;28;20073;-75
2022/03/27 08:37:13;;;;;;;67.82;24.50;;;;;;;8.04;100.00;102886.97;4984565;28;20042;-75
2022/03/27 08:39:39;;;;;;;61.25;24.17;;;;;;;8.07;100.00;102886.88;4983163;28;20041;-75
2022/03/27 08:42:06;;;;;;;60.65;23.75;;;;;;;8.01;100.00;102882.50;4981167;28;20053;-76
2022/03/27 08:44:37;;;;;;;55.67;22.70;;;;;;;8.08;100.00;102883.19;4980679;28;20044;-75
2022/03/27 08:47:10;;;;;;;59.42;23.50;;;;;;;7.97;100.00;102878.13;4985162;28;20501;-75
2022/03/27 08:49:47;;;;;;;63.90;23.00;;;;;;;8.10;100.00;102878.59;4983270;28;20048;-74
2022/03/27 08:52:21;;;;;;;60.83;22.63;;;;;;;8.04;100.00;102881.53;4980920;28;20030;-74
2022/03/27 08:55:12;;;;;;;63.33;22.38;;;;;;;8.09;100.00;102876.78;4990207;28;20038;-74
2022/03/27 08:57:38;;;;;;;58.88;23.40;;;;;;;8.08;100.00;102877.72;4984038;28;20907;-74
2022/03/27 09:00:05;;;;;;;56.35;22.50;;;;;;;8.21;100.00;102886.34;4988485;28;20049;-74
2022/03/27 09:02:30;;;;;;;61.85;23.63;;;;;;;8.18;100.00;102881.91;4976887;28;20432;-74
2022/03/27 09:04:57;;;;;;;61.05;23.77;;;;;;;8.17;100.00;102882.84;4983209;28;20038;-75
2022/03/27 09:07:24;;;;;;;65.78;24.23;;;;;;;8.44;100.00;102869.16;4965305;28;20453;-75
2022/03/27 09:09:53;;;;;;;65.07;25.50;;;;;;;8.24;100.00;102883.53;4983130;28;20410;-75
2022/03/27 09:12:20;;;;;;;65.53;23.73;;;;;;;8.31;100.00;102889.63;4981226;28;20399;-75
2022/03/27 09:14:45;;;;;;;57.80;24.08;;;;;;;8.49;100.00;102883.53;4985444;28;20561;-75
2022/03/27 09:17:11;;;;;;;56.35;23.08;;;;;;;8.55;100.00;102891.50;4988093;28;20485;-75
2022/03/27 09:19:39;;;;;;;53.45;22.17;;;;;;;8.40;100.00;102889.31;4992605;28;20050;-78
2022/03/27 09:22:15;;;;;;;56.10;23.13;;;;;;;8.50;100.00;102893.50;5000534;28;20097;-77
2022/03/27 09:24:43;;;;;;;52.67;22.17;;;;;;;8.49;100.00;102894.44;4985810;28;21410;-80
2022/03/27 09:27:08;;;;;;;54.25;23.08;;;;;;;8.67;100.00;102897.44;4997315;28;20035;-78
2022/03/27 09:30:00;;;;;;;53.10;22.48;;;;;;;8.61;100.00;102891.25;5008344;28;20049;-77
2022/03/27 09:32:31;;;;;;;53.30;21.98;;;;;;;8.75;100.00;102892.56;4997457;28;21764;-77
2022/03/27 09:34:59;;;;;;;54.08;22.05;;;;;;;8.71;100.00;102896.38;4989610;28;20048;-77
2022/03/27 09:37:36;;;;;;;56.47;23.85;;;;;;;8.53;100.00;102900.69;4968750;28;20601;-77
2022/03/27 09:40:03;;;;;;;58.35;22.63;;;;;;;8.59;100.00;102892.25;4968468;28;20026;-77
2022/03/27 09:42:28;;;;;;;59.35;23.58;;;;;;;8.62;100.00;102889.41;4993791;28;20053;-77
2022/03/27 09:45:14;;;;;;;62.58;23.85;;;;;;;8.58;100.00;102890.50;5000044;28;20042;-77
2022/03/27 09:47:43;;;;;;;57.65;24.45;;;;;;;8.74;100.00;102883.50;4981440;28;20077;-76
2022/03/27 09:50:27;;;;;;;48.00;21.73;;;;;;;8.89;100.00;102882.00;5011901;28;20621;-76
2022/03/27 09:52:52;;;;;;;48.30;22.17;;;;;;;8.87;100.00;102878.44;5002487;28;20446;-77
2022/03/27 09:55:18;;;;;;;50.88;21.95;;;;;;;9.07;100.00;102874.00;4994479;28;20041;-75
2022/03/27 09:57:43;;;;;;;48.03;21.45;;;;;;;9.04;100.00;102875.03;4989813;28;20026;-76
2022/03/27 10:00:13;;;;;;;50.85;21.23;;;;;;;9.33;100.00;102876.59;4996418;28;20055;-76
2022/03/27 10:02:43;;;;;;;48.38;20.58;;;;;;;9.24;100.00;102873.34;5001605;28;20124;-76
2022/03/27 10:05:10;;;;;;;47.45;21.33;;;;;;;9.20;100.00;102870.72;5013516;28;20045;-76
2022/03/27 10:07:43;;;;;;;54.65;22.83;;;;;;;9.02;100.00;102868.75;4966829;28;20425;-76
2022/03/27 10:10:12;;;;;;;56.10;23.05;;;;;;;8.97;100.00;102866.19;5008728;28;20026;-76
2022/03/27 10:12:39;;;;;;;49.13;21.20;;;;;;;9.25;100.00;102856.88;5008139;28;20079;-75
2022/03/27 10:15:17;;;;;;;57.70;22.88;;;;;;;9.31;100.00;102862.09;5008161;28;20088;-76
2022/03/27 10:17:48;;;;;;;57.35;21.95;;;;;;;9.20;100.00;102858.91;4984127;28;20057;-76
2022/03/27 10:20:16;;;;;;;50.35;21.15;;;;;;;9.48;100.00;102855.03;4998291;28;20513;-77
2022/03/27 10:22:53;;;;;;;50.88;20.65;;;;;;;9.24;100.00;102855.09;4988463;28;20133;-76
2022/03/27 10:25:18;;;;;;;52.00;21.88;;;;;;;9.19;100.00;102846.19;5003463;28;20038;-76
2022/03/27 10:27:47;;;;;;;51.78;22.17;;;;;;;9.24;100.00;102851.47;5001292;28;20030;-79
2022/03/27 10:30:15;;;;;;;48.35;20.52;;;;;;;9.36;100.00;102857.34;5005688;28;20534;-78
2022/03/27 10:32:42;;;;;;;44.05;20.85;;;;;;;9.35;100.00;102839.13;4997999;28;20053;-78
2022/03/27 10:35:32;;;;;;;45.88;20.58;;;;;;;9.33;100.00;102853.81;4988003;28;20104;-78
2022/03/27 10:38:35;;;;;;;48.78;21.63;;;;;;;9.50;100.00;102855.84;5006700;28;20034;-77
2022/03/27 10:41:29;;;;;;;48.05;22.38;;;;;;;9.56;100.00;102850.13;4986403;28;20096;-78
2022/03/27 10:44:27;;;;;;;50.17;22.90;;;;;;;9.42;100.00;102847.97;4986776;28;20030;-77
2022/03/27 10:47:12;;;;;;;45.95;21.75;;;;;;;10.08;100.00;102846.94;4998112;28;20031;-78
2022/03/27 10:49:40;;;;;;;52.20;23.08;;;;;;;9.83;100.00;102841.69;4988860;28;20126;-78
2022/03/27 10:52:12;;;;;;;47.10;22.83;;;;;;;10.07;100.00;102839.69;4996609;28;20056;-78
2022/03/27 10:54:58;;;;;;;46.97;22.50;;;;;;;10.00;100.00;102839.09;4993734;28;20031;-77
2022/03/27 10:57:35;;;;;;;55.58;23.83;;;;;;;10.07;100.00;102835.09;4988177;28;20108;-78
2022/03/27 11:00:04;;;;;;;47.25;20.55;;;;;;;10.36;100.00;102835.63;4984366;28;20084;-76
2022/03/27 11:02:45;;;;;;;51.03;21.80;;;;;;;10.12;100.00;102826.69;4983783;28;20496;-76
2022/03/27 11:05:31;;;;;;;43.50;19.70;;;;;;;10.33;100.00;102833.06;4966326;28;20035;-75
2022/03/27 11:08:15;;;;;;;41.72;19.45;;;;;;;10.60;100.00;102827.25;4991874;28;20026;-76
2022/03/27 11:10:44;;;;;;;42.60;21.40;;;;;;;10.16;100.00;102822.84;4999865;28;20037;-75
2022/03/27 11:13:28;;;;;;;45.05;22.48;;;;;;;10.06;100.00;102833.31;4991518;28;20504;-76
2022/03/27 11:16:03;;;;;;;52.92;23.85;;;;;;;10.25;100.00;102818.81;4988667;28;20401;-77